createdAt,value
2023-03-17T00:01:05.377Z,69.38
2023-03-17T00:03:36.265Z,68.67
2023-03-17T00:06:07.591Z,68.69
2023-03-17T00:08:36.053Z,69.35
2023-03-17T00:11:03.860Z,69.74
2023-03-17T00:13:32.200Z,70.39
2023-03-17T00:16:03.674Z,70.21
2023-03-17T00:18:34.601Z,70.18
2023-03-17T00:21:03.375Z,69.88
2023-03-17T00:23:30.643Z,70.16
2023-03-17T00:25:58.827Z,69.70
2023-03-17T00:28:29.987Z,69.72
2023-03-17T00:31:02.350Z,69.59
2023-03-17T00:33:35.828Z,69.23
2023-03-17T00:36:09.918Z,69.74
2023-03-17T00:38:40.131Z,70.16
2023-03-17T00:41:10.053Z,70.07
2023-03-17T00:43:36.910Z,69.72
2023-03-17T00:46:10.992Z,70.03
2023-03-17T00:48:45.485Z,70.48
2023-03-17T00:51:12.932Z,70.88
2023-03-17T00:53:49.482Z,70.47
2023-03-17T00:56:19.212Z,70.67
2023-03-17T00:58:49.012Z,70.48
2023-03-17T01:01:20.907Z,70.60
2023-03-17T01:03:55.948Z,70.97
2023-03-17T01:06:22.662Z,71.93
2023-03-17T01:08:53.985Z,71.88
2023-03-17T01:11:21.587Z,71.89
2023-03-17T01:13:48.797Z,71.37
2023-03-17T01:16:16.034Z,71.36
2023-03-17T01:18:46.421Z,70.42
2023-03-17T01:21:13.109Z,69.72
2023-03-17T01:23:44.971Z,69.33
2023-03-17T01:26:11.799Z,68.64
2023-03-17T01:28:39.452Z,68.02
2023-03-17T01:31:07.893Z,67.41
2023-03-17T01:33:36.544Z,66.89
2023-03-17T01:36:07.241Z,66.55
2023-03-17T01:38:34.005Z,65.63
2023-03-17T01:41:01.811Z,64.87
2023-03-17T01:43:31.510Z,64.16
2023-03-17T01:46:29.772Z,63.08
2023-03-17T01:49:19.695Z,62.94
2023-03-17T01:52:10.462Z,62.23
2023-03-17T01:54:42.974Z,62.41
2023-03-17T01:57:23.372Z,61.55
2023-03-17T02:00:08.220Z,60.93
2023-03-17T02:02:44.119Z,60.48
2023-03-17T02:05:17.150Z,59.82
2023-03-17T02:07:47.126Z,59.64
2023-03-17T02:10:17.595Z,58.97
2023-03-17T02:12:48.069Z,59.17
2023-03-17T02:15:15.613Z,59.05
2023-03-17T02:17:43.242Z,58.41
2023-03-17T02:20:32.853Z,58.22
2023-03-17T02:23:00.519Z,58.13
2023-03-17T02:25:30.811Z,57.64
2023-03-17T02:28:14.941Z,57.17
2023-03-17T02:30:43.468Z,57.27
2023-03-17T02:33:15.174Z,56.97
2023-03-17T02:35:45.283Z,56.86
2023-03-17T02:38:14.644Z,57.03
2023-03-17T02:40:41.682Z,56.82
2023-03-17T02:43:11.140Z,56.49
2023-03-17T02:45:37.805Z,56.56
2023-03-17T02:48:13.736Z,56.65
2023-03-17T02:50:44.586Z,56.37
2023-03-17T02:53:11.345Z,56.03
2023-03-17T02:55:41.349Z,55.93
2023-03-17T02:58:12.552Z,55.84
2023-03-17T03:00:42.207Z,55.85
2023-03-17T03:03:10.422Z,55.83
2023-03-17T03:05:37.662Z,55.89
2023-03-17T03:08:04.459Z,55.37
2023-03-17T03:10:31.317Z,55.22
2023-03-17T03:12:58.210Z,55.03
2023-03-17T03:15:29.639Z,54.78
2023-03-17T03:17:56.743Z,54.81
2023-03-17T03:20:26.473Z,54.83
2023-03-17T03:22:55.477Z,54.95
2023-03-17T03:25:27.091Z,55.04
2023-03-17T03:27:53.909Z,54.90
2023-03-17T03:30:25.770Z,55.04
2023-03-17T03:32:52.804Z,55.68
2023-03-17T03:35:19.522Z,56.28
2023-03-17T03:37:46.692Z,56.53
2023-03-17T03:40:13.614Z,56.94
2023-03-17T03:42:46.847Z,57.10
2023-03-17T03:45:13.593Z,57.40
2023-03-17T03:47:41.341Z,57.74
2023-03-17T03:50:11.355Z,57.63
2023-03-17T03:52:38.506Z,57.86
2023-03-17T03:55:06.622Z,58.21
2023-03-17T03:57:33.372Z,58.07
2023-03-17T04:00:07.581Z,58.30
2023-03-17T04:02:43.139Z,58.85
2023-03-17T04:05:11.299Z,59.18
2023-03-17T04:07:39.203Z,58.98
2023-03-17T04:10:10.094Z,58.85
2023-03-17T04:12:37.209Z,58.92
2023-03-17T04:15:06.949Z,58.71
2023-03-17T04:17:34.220Z,58.43
2023-03-17T04:20:05.664Z,57.46
2023-03-17T04:22:32.471Z,56.47
2023-03-17T04:24:59.544Z,56.22
2023-03-17T04:27:31.339Z,55.82
2023-03-17T04:29:59.449Z,55.48
2023-03-17T04:32:27.250Z,55.38
2023-03-17T04:34:57.922Z,55.11
2023-03-17T04:37:25.242Z,54.84
2023-03-17T04:39:54.706Z,55.01
2023-03-17T04:42:21.549Z,54.51
2023-03-17T04:44:48.207Z,54.56
2023-03-17T04:47:14.912Z,54.43
2023-03-17T04:49:42.532Z,54.12
2023-03-17T04:52:11.089Z,53.75
2023-03-17T04:54:38.087Z,53.82
2023-03-17T04:57:07.174Z,53.76
2023-03-17T04:59:41.115Z,53.55
2023-03-17T05:02:13.317Z,53.79
2023-03-17T05:04:42.206Z,53.64
2023-03-17T05:07:17.653Z,53.80
2023-03-17T05:09:44.356Z,53.29
2023-03-17T05:12:30.167Z,53.23
2023-03-17T05:15:00.916Z,53.26
2023-03-17T05:17:27.615Z,53.16
2023-03-17T05:19:55.520Z,53.34
2023-03-17T05:22:25.076Z,53.32
2023-03-17T05:24:54.080Z,53.23
2023-03-17T05:27:22.805Z,52.69
2023-03-17T05:29:53.326Z,53.12
2023-03-17T05:32:19.993Z,53.08
2023-03-17T05:34:49.439Z,53.11
2023-03-17T05:37:18.861Z,52.65
2023-03-17T05:39:50.366Z,52.65
2023-03-17T05:42:17.072Z,52.36
2023-03-17T05:44:45.091Z,52.36
2023-03-17T05:47:12.351Z,52.50
2023-03-17T05:49:42.087Z,51.93
2023-03-17T05:52:08.839Z,51.89
2023-03-17T05:54:36.845Z,51.60
2023-03-17T05:57:05.005Z,51.64
2023-03-17T05:59:34.980Z,51.39
2023-03-17T06:02:02.218Z,51.23
2023-03-17T06:04:35.696Z,51.13
2023-03-17T06:07:03.412Z,50.62
2023-03-17T06:09:30.076Z,51.17
2023-03-17T06:12:01.333Z,50.74
2023-03-17T06:14:27.990Z,50.57
2023-03-17T06:16:54.946Z,51.10
2023-03-17T06:19:26.805Z,50.54
2023-03-17T06:21:54.901Z,50.07
2023-03-17T06:24:24.321Z,49.55
2023-03-17T06:26:52.901Z,49.59
2023-03-17T06:29:19.897Z,49.75
2023-03-17T06:31:50.967Z,49.73
2023-03-17T06:34:23.993Z,49.42
2023-03-17T06:36:54.064Z,49.65
2023-03-17T06:39:22.369Z,49.14
2023-03-17T06:41:49.240Z,49.22
2023-03-17T06:44:17.642Z,48.79
2023-03-17T06:46:44.325Z,48.74
2023-03-17T06:49:16.773Z,49.21
2023-03-17T06:51:43.874Z,48.84
2023-03-17T06:54:10.563Z,48.78
2023-03-17T06:56:39.560Z,48.48
2023-03-17T06:59:06.725Z,48.87
2023-03-17T07:01:35.717Z,48.50
2023-03-17T07:04:05.541Z,48.72
2023-03-17T07:06:33.733Z,48.37
2023-03-17T07:09:02.295Z,48.42
2023-03-17T07:11:30.838Z,48.77
2023-03-17T07:13:57.589Z,47.83
2023-03-17T07:16:25.357Z,47.92
2023-03-17T07:18:57.554Z,47.30
2023-03-17T07:21:27.052Z,47.12
2023-03-17T07:23:56.043Z,47.10
2023-03-17T07:26:22.820Z,46.64
2023-03-17T07:28:50.922Z,46.09
2023-03-17T07:31:23.434Z,46.37
2023-03-17T07:33:52.909Z,45.74
2023-03-17T07:36:19.961Z,46.08
2023-03-17T07:38:48.690Z,46.13
2023-03-17T07:41:21.379Z,45.92
2023-03-17T07:43:50.608Z,45.24
2023-03-17T07:46:30.329Z,44.83
2023-03-17T07:48:57.627Z,44.56
2023-03-17T07:51:30.298Z,44.18
2023-03-17T07:54:03.546Z,44.34
2023-03-17T07:56:31.546Z,43.72
2023-03-17T07:58:59.515Z,43.73
2023-03-17T08:01:27.977Z,42.63
2023-03-17T08:03:58.032Z,42.80
2023-03-17T08:06:31.064Z,43.15
2023-03-17T08:08:58.703Z,41.78
2023-03-17T08:11:26.486Z,41.71
2023-03-17T08:13:56.717Z,41.06
2023-03-17T08:16:24.013Z,40.82
2023-03-17T08:18:50.797Z,40.54
2023-03-17T08:21:26.814Z,40.28
2023-03-17T08:23:54.662Z,39.81
2023-03-17T08:26:26.743Z,40.12
2023-03-17T08:29:00.032Z,39.47
2023-03-17T08:31:33.844Z,38.83
2023-03-17T08:34:06.149Z,38.68
2023-03-17T08:36:33.128Z,38.36
2023-03-17T08:39:01.920Z,38.37
2023-03-17T08:41:29.300Z,38.01
2023-03-17T08:43:58.647Z,37.58
2023-03-17T08:46:37.577Z,37.48
2023-03-17T08:49:04.789Z,37.58
2023-03-17T08:51:38.638Z,37.33
2023-03-17T08:54:08.838Z,37.21
2023-03-17T08:56:37.764Z,36.68
2023-03-17T08:59:08.582Z,35.79
2023-03-17T09:01:39.561Z,35.89
2023-03-17T09:04:09.903Z,35.80
2023-03-17T09:06:38.779Z,35.71
2023-03-17T09:09:06.929Z,35.77
2023-03-17T09:11:35.367Z,35.61
2023-03-17T09:14:03.276Z,36.13
2023-03-17T09:16:34.188Z,36.12
2023-03-17T09:19:01.192Z,36.04
2023-03-17T09:21:29.885Z,35.87
2023-03-17T09:23:56.813Z,35.78
2023-03-17T09:26:26.807Z,35.56
2023-03-17T09:28:57.261Z,34.94
2023-03-17T09:31:28.463Z,33.80
2023-03-17T09:33:55.565Z,34.42
2023-03-17T09:36:22.199Z,33.78
2023-03-17T09:38:50.131Z,32.60
2023-03-17T09:41:20.893Z,31.69
2023-03-17T09:44:19.188Z,33.27
2023-03-17T09:47:13.925Z,32.26
2023-03-17T09:49:47.965Z,31.13
2023-03-17T09:52:18.656Z,30.62
2023-03-17T09:54:46.681Z,30.57
2023-03-17T09:57:22.323Z,31.37
2023-03-17T10:00:08.944Z,31.84
2023-03-17T10:02:45.482Z,31.73
2023-03-17T10:05:27.568Z,31.01
2023-03-17T10:08:30.148Z,30.71
2023-03-17T10:11:07.825Z,30.50
2023-03-17T10:13:44.188Z,30.96
2023-03-17T10:16:18.643Z,30.46
2023-03-17T10:18:54.638Z,30.30
2023-03-17T10:21:26.021Z,30.28
2023-03-17T10:23:56.514Z,30.43
2023-03-17T10:26:50.372Z,30.70
2023-03-17T10:29:24.237Z,30.40
2023-03-17T10:31:58.843Z,30.13
2023-03-17T10:34:32.352Z,30.55
2023-03-17T10:37:12.689Z,30.85
2023-03-17T10:39:49.164Z,31.79
2023-03-17T10:42:33.533Z,30.63
2023-03-17T10:45:29.618Z,30.15
2023-03-17T10:48:00.252Z,31.34
2023-03-17T10:50:33.052Z,31.86
2023-03-17T10:53:04.457Z,30.39
2023-03-17T10:55:44.777Z,30.55
2023-03-17T10:58:18.911Z,30.58
2023-03-17T11:01:00.110Z,32.14
2023-03-17T11:03:38.947Z,32.79
2023-03-17T11:06:09.823Z,32.29
2023-03-17T11:08:41.703Z,32.55
2023-03-17T11:11:21.360Z,32.85
2023-03-17T11:13:51.295Z,32.35
2023-03-17T11:16:24.861Z,32.30
2023-03-17T11:18:57.661Z,32.11
2023-03-17T11:21:31.735Z,32.04
2023-03-17T11:24:50.094Z,31.28
2023-03-17T11:27:33.406Z,31.57
2023-03-17T11:30:25.067Z,31.69
2023-03-17T11:32:56.673Z,30.86
2023-03-17T11:35:44.625Z,30.10
2023-03-17T11:38:20.254Z,28.55
2023-03-17T11:41:13.174Z,28.17
2023-03-17T11:43:56.260Z,28.98
2023-03-17T11:46:34.670Z,29.63
2023-03-17T11:49:29.000Z,29.09
2023-03-17T11:52:23.233Z,30.18
2023-03-17T11:55:00.211Z,30.23
2023-03-17T11:57:41.071Z,31.29
2023-03-17T12:00:34.941Z,28.30
2023-03-17T12:03:04.771Z,28.45
2023-03-17T12:05:35.564Z,28.81
2023-03-17T12:08:06.364Z,28.85
2023-03-17T12:10:46.137Z,29.07
2023-03-17T12:13:19.238Z,29.09
2023-03-17T12:16:08.772Z,28.88
2023-03-17T12:18:46.391Z,28.82
2023-03-17T12:21:45.779Z,28.91
2023-03-17T12:24:34.817Z,29.39
2023-03-17T12:27:22.094Z,29.53
2023-03-17T12:29:58.958Z,28.97
2023-03-17T12:32:44.064Z,27.68
2023-03-17T12:35:36.705Z,27.74
2023-03-17T12:38:19.646Z,27.86
2023-03-17T12:41:25.827Z,28.09
2023-03-17T12:44:14.177Z,27.81
2023-03-17T12:46:54.086Z,26.98
2023-03-17T12:50:04.686Z,27.51
2023-03-17T12:53:19.531Z,27.27
2023-03-17T12:55:47.929Z,26.96
2023-03-17T12:58:30.870Z,26.85
2023-03-17T13:01:54.872Z,26.51
2023-03-17T13:04:28.163Z,26.27
2023-03-17T13:07:08.421Z,26.79
2023-03-17T13:09:44.273Z,27.12
2023-03-17T13:12:51.021Z,27.70
2023-03-17T13:15:23.065Z,28.06
2023-03-17T13:17:52.542Z,27.75
2023-03-17T13:20:45.757Z,27.62
2023-03-17T13:23:42.104Z,27.15
2023-03-17T13:26:12.786Z,27.32
2023-03-17T13:28:50.123Z,27.59
2023-03-17T13:31:32.084Z,27.72
2023-03-17T13:34:12.901Z,27.70
2023-03-17T13:36:49.146Z,28.18
2023-03-17T13:39:41.125Z,27.32
2023-03-17T13:42:34.126Z,27.54
2023-03-17T13:45:33.336Z,27.80
2023-03-17T13:48:27.684Z,27.03
2023-03-17T13:51:25.127Z,27.47
2023-03-17T13:53:55.604Z,27.41
2023-03-17T13:56:36.254Z,27.71
2023-03-17T13:59:06.458Z,27.60
2023-03-17T14:01:47.643Z,27.61
2023-03-17T14:04:20.873Z,27.67
2023-03-17T14:06:53.302Z,27.40
2023-03-17T14:09:49.589Z,27.59
2023-03-17T14:12:25.238Z,27.25
2023-03-17T14:15:08.070Z,27.37
2023-03-17T14:17:43.624Z,27.42
2023-03-17T14:20:13.423Z,26.90
2023-03-17T14:22:47.954Z,26.47
2023-03-17T14:25:22.373Z,26.92
2023-03-17T14:27:56.170Z,26.91
2023-03-17T14:30:28.755Z,26.91
2023-03-17T14:33:06.530Z,26.52
2023-03-17T14:35:46.108Z,26.57
2023-03-17T14:38:22.482Z,27.20
2023-03-17T14:41:24.470Z,26.98
2023-03-17T14:43:53.096Z,26.96
2023-03-17T14:46:25.771Z,27.03
2023-03-17T14:49:00.111Z,27.30
2023-03-17T14:51:35.929Z,26.92
2023-03-17T14:54:10.672Z,27.13
2023-03-17T14:56:40.311Z,27.10
2023-03-17T14:59:18.804Z,27.16
2023-03-17T15:01:48.642Z,27.36
2023-03-17T15:04:26.217Z,27.01
2023-03-17T15:06:57.306Z,27.13
2023-03-17T15:09:30.738Z,27.39
2023-03-17T15:12:26.376Z,28.29
2023-03-17T15:15:01.248Z,27.76
2023-03-17T15:17:32.081Z,27.96
2023-03-17T15:20:04.358Z,27.80
2023-03-17T15:22:39.123Z,27.41
2023-03-17T15:25:34.136Z,28.01
2023-03-17T15:28:02.228Z,27.84
2023-03-17T15:30:40.819Z,27.71
2023-03-17T15:33:31.887Z,27.86
2023-03-17T15:36:03.614Z,27.92
2023-03-17T15:38:30.718Z,27.92
2023-03-17T15:40:57.545Z,28.02
2023-03-17T15:43:24.427Z,28.25
2023-03-17T15:46:09.628Z,28.25
2023-03-17T15:48:37.059Z,28.83
2023-03-17T15:51:06.787Z,29.20
2023-03-17T15:53:35.830Z,29.06
2023-03-17T15:56:03.204Z,29.48
2023-03-17T15:58:35.220Z,29.45
2023-03-17T16:01:03.524Z,29.82
2023-03-17T16:03:36.221Z,30.42
2023-03-17T16:06:10.059Z,30.50
2023-03-17T16:08:37.799Z,30.63
2023-03-17T16:11:07.826Z,30.67
2023-03-17T16:13:37.978Z,31.07
2023-03-17T16:16:10.517Z,31.14
2023-03-17T16:18:39.592Z,31.48
2023-03-17T16:21:07.882Z,31.76
2023-03-17T16:23:41.596Z,31.92
2023-03-17T16:26:15.510Z,31.95
2023-03-17T16:28:44.761Z,31.94
2023-03-17T16:31:31.707Z,32.43
2023-03-17T16:34:01.590Z,32.37
2023-03-17T16:36:32.358Z,32.31
2023-03-17T16:39:00.119Z,32.61
2023-03-17T16:41:27.668Z,32.59
2023-03-17T16:43:59.678Z,32.80
2023-03-17T16:46:38.538Z,33.08
2023-03-17T16:49:06.407Z,32.97
2023-03-17T16:51:33.031Z,33.13
2023-03-17T16:54:05.767Z,33.15
2023-03-17T16:56:32.606Z,33.29
2023-03-17T16:59:01.947Z,33.60
2023-03-17T17:01:32.156Z,33.69
2023-03-17T17:04:10.451Z,33.78
2023-03-17T17:06:38.812Z,33.80
2023-03-17T17:09:08.720Z,34.01
2023-03-17T17:11:36.726Z,34.12
2023-03-17T17:14:04.412Z,34.17
2023-03-17T17:16:34.156Z,34.29
2023-03-17T17:19:06.742Z,34.64
2023-03-17T17:21:34.634Z,34.45
2023-03-17T17:24:01.720Z,34.55
2023-03-17T17:26:29.659Z,34.60
2023-03-17T17:29:01.519Z,34.71
2023-03-17T17:31:29.768Z,34.94
2023-03-17T17:33:56.857Z,34.90
2023-03-17T17:36:30.859Z,35.01
2023-03-17T17:38:57.631Z,35.24
2023-03-17T17:41:32.519Z,35.68
2023-03-17T17:44:03.773Z,35.38
2023-03-17T17:46:33.539Z,35.59
2023-03-17T17:49:00.727Z,35.77
2023-03-17T17:51:29.907Z,35.55
2023-03-17T17:53:59.070Z,35.67
2023-03-17T17:56:26.312Z,35.50
2023-03-17T17:58:53.028Z,36.21
2023-03-17T18:01:22.819Z,36.28
2023-03-17T18:03:53.726Z,36.18
2023-03-17T18:06:22.554Z,36.43
2023-03-17T18:08:49.959Z,36.78
2023-03-17T18:11:20.664Z,36.71
2023-03-17T18:13:48.581Z,37.23
2023-03-17T18:16:16.843Z,37.21
2023-03-17T18:18:48.437Z,37.12
2023-03-17T18:21:15.944Z,37.71
2023-03-17T18:23:48.219Z,37.99
2023-03-17T18:26:16.215Z,37.88
2023-03-17T18:28:43.342Z,37.92
2023-03-17T18:31:13.179Z,38.12
2023-03-17T18:33:43.773Z,38.30
2023-03-17T18:36:11.430Z,38.43
2023-03-17T18:38:38.596Z,38.49
2023-03-17T18:41:09.565Z,38.57
2023-03-17T18:43:43.938Z,38.85
2023-03-17T18:46:13.719Z,39.13
2023-03-17T18:48:45.619Z,39.57
2023-03-17T18:51:12.494Z,39.97
2023-03-17T18:53:40.796Z,40.03
2023-03-17T18:56:08.323Z,40.13
2023-03-17T18:58:36.363Z,40.21
2023-03-17T19:01:03.778Z,40.29
2023-03-17T19:03:32.360Z,40.10
2023-03-17T19:06:11.136Z,40.34
2023-03-17T19:08:47.907Z,40.70
2023-03-17T19:11:18.257Z,40.82
2023-03-17T19:13:47.924Z,40.96
2023-03-17T19:16:18.876Z,41.32
2023-03-17T19:18:48.488Z,41.31
2023-03-17T19:21:17.791Z,41.34
2023-03-17T19:23:44.929Z,41.92
2023-03-17T19:26:17.459Z,42.26
2023-03-17T19:28:44.890Z,42.74
2023-03-17T19:31:13.006Z,43.03
2023-03-17T19:33:39.868Z,42.61
2023-03-17T19:36:09.965Z,43.12
2023-03-17T19:38:37.139Z,43.43
2023-03-17T19:41:04.705Z,42.90
2023-03-17T19:43:40.349Z,43.38
2023-03-17T19:46:11.201Z,43.98
2023-03-17T19:48:42.898Z,43.90
2023-03-17T19:51:09.564Z,44.62
2023-03-17T19:53:40.550Z,44.29
2023-03-17T19:56:07.503Z,45.09
2023-03-17T19:58:34.152Z,44.95
2023-03-17T20:01:07.563Z,44.79
2023-03-17T20:03:37.567Z,44.89
2023-03-17T20:06:11.348Z,45.75
2023-03-17T20:08:40.151Z,45.58
2023-03-17T20:11:11.685Z,45.59
2023-03-17T20:13:39.595Z,45.88
2023-03-17T20:16:12.408Z,45.90
2023-03-17T20:18:39.265Z,45.95
2023-03-17T20:21:12.242Z,46.06
2023-03-17T20:23:38.920Z,46.41
2023-03-17T20:26:07.428Z,46.31
2023-03-17T20:28:44.701Z,46.34
2023-03-17T20:31:13.205Z,46.37
2023-03-17T20:33:42.345Z,46.32
2023-03-17T20:36:12.997Z,46.48
2023-03-17T20:38:43.727Z,46.59
2023-03-17T20:41:13.866Z,46.54
2023-03-17T20:43:41.814Z,46.82
2023-03-17T20:46:21.085Z,47.24
2023-03-17T20:48:48.492Z,47.08
2023-03-17T20:51:18.799Z,47.19
2023-03-17T20:53:53.048Z,47.42
2023-03-17T20:56:22.446Z,47.55
2023-03-17T20:58:50.684Z,47.44
2023-03-17T21:01:21.289Z,47.58
2023-03-17T21:03:54.030Z,47.53
2023-03-17T21:06:22.127Z,47.72
2023-03-17T21:08:52.405Z,47.85
2023-03-17T21:11:27.482Z,48.15
2023-03-17T21:13:54.389Z,48.25
2023-03-17T21:16:26.458Z,48.31
2023-03-17T21:18:55.962Z,48.61
2023-03-17T21:21:23.014Z,48.88
2023-03-17T21:23:49.700Z,48.93
2023-03-17T21:26:19.704Z,49.07
2023-03-17T21:29:06.914Z,49.04
2023-03-17T21:31:34.012Z,49.42
2023-03-17T21:34:03.516Z,48.86
2023-03-17T21:36:33.716Z,49.74
2023-03-17T21:39:02.952Z,49.50
2023-03-17T21:41:35.898Z,49.24
2023-03-17T21:44:04.050Z,49.68
2023-03-17T21:46:33.450Z,49.83
2023-03-17T21:49:01.784Z,49.94
2023-03-17T21:51:32.764Z,49.26
2023-03-17T21:53:59.693Z,49.80
2023-03-17T21:56:27.441Z,49.75
2023-03-17T21:58:55.217Z,49.72
2023-03-17T22:01:28.645Z,50.03
2023-03-17T22:03:57.712Z,49.43
2023-03-17T22:06:27.572Z,49.74
2023-03-17T22:08:54.693Z,49.58
2023-03-17T22:11:22.618Z,49.72
2023-03-17T22:13:49.355Z,49.43
2023-03-17T22:16:16.799Z,49.63
2023-03-17T22:18:43.836Z,49.06
2023-03-17T22:21:11.229Z,49.07
2023-03-17T22:23:42.341Z,49.23
2023-03-17T22:26:12.438Z,48.73
2023-03-17T22:28:40.046Z,48.77
2023-03-17T22:31:19.515Z,48.77
2023-03-17T22:33:49.127Z,48.50
2023-03-17T22:36:16.164Z,49.03
2023-03-17T22:38:45.484Z,48.90
2023-03-17T22:41:21.573Z,49.50
2023-03-17T22:43:48.485Z,49.45
2023-03-17T22:46:17.209Z,48.99
2023-03-17T22:48:45.269Z,49.33
2023-03-17T22:51:16.488Z,49.24
2023-03-17T22:53:47.574Z,49.06
2023-03-17T22:56:17.805Z,49.63
2023-03-17T22:58:45.814Z,49.46
2023-03-17T23:01:17.359Z,49.54
2023-03-17T23:03:45.131Z,49.67
2023-03-17T23:06:15.163Z,49.81
2023-03-17T23:08:42.937Z,49.85
2023-03-17T23:11:18.658Z,49.92
2023-03-17T23:13:47.443Z,50.18
2023-03-17T23:16:17.670Z,50.60
2023-03-17T23:18:47.178Z,50.40
2023-03-17T23:21:28.430Z,50.65
2023-03-17T23:23:58.389Z,51.13
2023-03-17T23:26:27.916Z,51.03
2023-03-17T23:28:57.641Z,51.04
2023-03-17T23:31:24.785Z,51.44
2023-03-17T23:33:54.490Z,51.80
2023-03-17T23:36:26.181Z,52.09
2023-03-17T23:38:52.917Z,51.82
2023-03-17T23:41:19.755Z,52.28
2023-03-17T23:43:50.694Z,52.16
2023-03-17T23:46:21.492Z,52.67
2023-03-17T23:48:49.198Z,52.65
2023-03-17T23:51:16.241Z,52.69
2023-03-17T23:53:43.074Z,52.89
2023-03-17T23:56:11.516Z,53.13
2023-03-17T23:58:46.707Z,52.75
